createdAt,value
2022-09-12T00:00:50.629Z,14.15
2022-09-12T00:03:58.257Z,14.16
2022-09-12T00:07:00.471Z,14.16
2022-09-12T00:10:02.706Z,14.16
2022-09-12T00:13:04.870Z,14.15
2022-09-12T00:16:07.497Z,13.96
2022-09-12T00:19:10.422Z,14.05
2022-09-12T00:22:12.634Z,14.04
2022-09-12T00:25:14.854Z,13.93
2022-09-12T00:28:17.963Z,13.88
2022-09-12T00:31:24.144Z,13.86
2022-09-12T00:34:26.509Z,13.80
2022-09-12T00:37:28.713Z,13.82
2022-09-12T00:40:30.847Z,13.84
2022-09-12T00:43:37.554Z,13.81
2022-09-12T00:46:44.423Z,13.84
2022-09-12T00:49:46.545Z,13.80
2022-09-12T00:53:17.988Z,13.74
2022-09-12T00:56:20.448Z,13.70
2022-09-12T00:59:26.682Z,13.69
2022-09-12T01:02:29.085Z,13.66
2022-09-12T01:05:32.119Z,13.64
2022-09-12T01:08:37.400Z,13.59
2022-09-12T01:11:40.507Z,13.45
2022-09-12T01:14:42.971Z,13.17
2022-09-12T01:18:08.842Z,13.21
2022-09-12T01:22:02.241Z,12.98
2022-09-12T01:25:28.965Z,12.98
2022-09-12T01:29:06.423Z,12.63
2022-09-12T01:32:30.550Z,12.64
2022-09-12T01:35:41.758Z,12.63
2022-09-12T01:38:50.417Z,12.56
2022-09-12T01:42:01.431Z,12.47
2022-09-12T01:45:33.999Z,12.55
2022-09-12T01:48:40.927Z,12.48
2022-09-12T01:51:53.957Z,12.62
2022-09-12T01:55:03.715Z,12.80
2022-09-12T01:58:08.347Z,12.85
2022-09-12T02:01:15.661Z,12.74
2022-09-12T02:04:34.081Z,12.71
2022-09-12T02:07:47.114Z,12.56
2022-09-12T02:11:07.633Z,12.50
2022-09-12T02:14:18.785Z,12.48
2022-09-12T02:17:23.111Z,12.31
2022-09-12T02:20:47.362Z,12.10
2022-09-12T02:23:57.227Z,12.13
2022-09-12T02:27:07.412Z,11.91
2022-09-12T02:30:10.857Z,11.93
2022-09-12T02:33:26.722Z,11.99
2022-09-12T02:36:34.550Z,11.87
2022-09-12T02:39:37.085Z,11.81
2022-09-12T02:42:39.309Z,11.91
2022-09-12T02:45:41.648Z,11.92
2022-09-12T02:48:43.907Z,11.93
2022-09-12T02:51:46.756Z,11.68
2022-09-12T02:54:49.331Z,11.69
2022-09-12T02:57:51.523Z,11.67
2022-09-12T03:01:06.315Z,11.93
2022-09-12T03:04:14.597Z,12.11
2022-09-12T03:07:40.284Z,12.29
2022-09-12T03:11:07.339Z,12.29
2022-09-12T03:14:32.380Z,12.51
2022-09-12T03:18:06.370Z,12.62
2022-09-12T03:21:11.488Z,12.55
2022-09-12T03:24:20.992Z,12.61
2022-09-12T03:27:39.609Z,12.63
2022-09-12T03:30:44.209Z,12.67
2022-09-12T03:33:46.503Z,12.69
2022-09-12T03:36:49.027Z,12.69
2022-09-12T03:39:51.238Z,12.64
2022-09-12T03:42:53.799Z,12.58
2022-09-12T03:45:55.985Z,12.52
2022-09-12T03:48:58.264Z,12.54
2022-09-12T03:52:00.435Z,12.66
2022-09-12T03:55:02.690Z,12.47
2022-09-12T03:58:04.897Z,12.42
2022-09-12T04:01:17.261Z,12.40
2022-09-12T04:04:19.562Z,12.42
2022-09-12T04:07:21.807Z,12.35
2022-09-12T04:10:23.968Z,12.23
2022-09-12T04:13:26.140Z,12.23
2022-09-12T04:16:28.405Z,12.12
2022-09-12T04:19:30.614Z,12.11
2022-09-12T04:22:33.367Z,12.17
2022-09-12T04:25:35.543Z,12.13
2022-09-12T04:28:38.800Z,12.28
2022-09-12T04:31:41.311Z,12.35
2022-09-12T04:34:43.489Z,12.48
2022-09-12T04:37:45.667Z,12.22
2022-09-12T04:40:47.881Z,12.24
2022-09-12T04:44:04.266Z,12.09
2022-09-12T04:47:06.432Z,12.33
2022-09-12T04:50:08.927Z,12.33
2022-09-12T04:53:11.382Z,12.40
2022-09-12T04:56:13.603Z,12.43
2022-09-12T04:59:17.420Z,12.38
2022-09-12T05:02:19.772Z,12.43
2022-09-12T05:05:22.038Z,12.43
2022-09-12T05:08:24.180Z,12.65
2022-09-12T05:11:46.853Z,12.75
2022-09-12T05:14:50.897Z,12.84
2022-09-12T05:17:53.065Z,12.86
2022-09-12T05:20:55.590Z,13.25
2022-09-12T05:24:01.757Z,13.56
2022-09-12T05:27:04.858Z,13.70
2022-09-12T05:30:07.811Z,14.20
2022-09-12T05:33:10.123Z,14.22
2022-09-12T05:36:15.012Z,14.31
2022-09-12T05:39:18.551Z,14.41
2022-09-12T05:42:20.718Z,14.72
2022-09-12T05:45:22.883Z,14.90
2022-09-12T05:48:25.099Z,15.09
2022-09-12T05:51:29.025Z,14.96
2022-09-12T05:54:31.800Z,15.27
2022-09-12T05:57:34.098Z,15.36
2022-09-12T06:00:36.245Z,15.58
2022-09-12T06:03:47.470Z,15.82
2022-09-12T06:06:50.245Z,15.97
2022-09-12T06:09:52.397Z,16.06
2022-09-12T06:12:54.538Z,16.08
2022-09-12T06:16:12.521Z,16.20
2022-09-12T06:19:17.435Z,16.21
2022-09-12T06:22:19.987Z,16.35
2022-09-12T06:25:22.296Z,16.53
2022-09-12T06:28:24.888Z,16.56
2022-09-12T06:31:35.647Z,16.81
2022-09-12T06:34:37.906Z,16.94
2022-09-12T06:37:40.745Z,17.03
2022-09-12T06:40:44.634Z,17.00
2022-09-12T06:43:46.799Z,17.16
2022-09-12T06:46:49.298Z,17.06
2022-09-12T06:49:51.515Z,17.24
2022-09-12T06:52:54.012Z,17.47
2022-09-12T06:56:01.383Z,17.60
2022-09-12T06:59:03.617Z,17.49
2022-09-12T07:02:06.488Z,17.71
2022-09-12T07:05:09.207Z,17.83
2022-09-12T07:08:11.386Z,17.84
2022-09-12T07:11:17.787Z,18.00
2022-09-12T07:14:20.036Z,17.98
2022-09-12T07:17:22.213Z,18.04
2022-09-12T07:20:24.351Z,17.62
2022-09-12T07:23:26.476Z,17.78
2022-09-12T07:26:29.614Z,17.79
2022-09-12T07:29:36.878Z,17.84
2022-09-12T07:32:40.055Z,17.74
2022-09-12T07:35:42.268Z,17.91
2022-09-12T07:38:44.698Z,17.55
2022-09-12T07:41:46.882Z,17.55
2022-09-12T07:44:49.096Z,18.21
2022-09-12T07:47:54.253Z,18.49
2022-09-12T07:51:00.776Z,18.15
2022-09-12T07:54:03.665Z,18.28
2022-09-12T07:57:05.965Z,18.42
2022-09-12T08:00:08.829Z,18.40
2022-09-12T08:03:10.976Z,18.51
2022-09-12T08:06:21.187Z,18.47
2022-09-12T08:09:23.353Z,18.15
2022-09-12T08:12:25.527Z,18.03
2022-09-12T08:15:27.738Z,18.12
2022-09-12T08:18:30.937Z,17.98
2022-09-12T08:21:34.175Z,18.53
2022-09-12T08:24:36.360Z,18.74
2022-09-12T08:27:39.172Z,18.65
2022-09-12T08:30:41.423Z,18.66
2022-09-12T08:33:43.833Z,18.89
2022-09-12T08:36:46.255Z,18.84
2022-09-12T08:39:48.487Z,19.05
2022-09-12T08:43:14.164Z,18.75
2022-09-12T08:46:23.564Z,18.58
2022-09-12T08:49:31.159Z,18.89
2022-09-12T08:52:44.295Z,19.13
2022-09-12T08:55:53.810Z,19.02
2022-09-12T08:58:55.970Z,19.07
2022-09-12T09:01:59.284Z,18.83
2022-09-12T09:05:23.250Z,19.25
2022-09-12T09:08:35.519Z,19.39
2022-09-12T09:11:54.536Z,19.40
2022-09-12T09:15:05.352Z,19.08
2022-09-12T09:18:38.241Z,18.65
2022-09-12T09:21:50.882Z,18.60
2022-09-12T09:24:58.049Z,18.56
2022-09-12T09:28:05.093Z,19.07
2022-09-12T09:31:39.865Z,19.63
2022-09-12T09:34:42.680Z,19.54
2022-09-12T09:38:15.390Z,19.41
2022-09-12T09:41:41.848Z,19.74
2022-09-12T09:44:47.205Z,19.77
2022-09-12T09:47:52.721Z,19.74
2022-09-12T09:50:58.062Z,19.68
2022-09-12T09:54:24.720Z,20.01
2022-09-12T09:57:36.218Z,19.60
2022-09-12T10:00:39.060Z,19.61
2022-09-12T10:03:48.381Z,19.51
2022-09-12T10:06:56.618Z,19.19
2022-09-12T10:10:19.317Z,19.40
2022-09-12T10:13:30.100Z,19.49
2022-09-12T10:16:34.722Z,20.03
2022-09-12T10:19:40.025Z,20.37
2022-09-12T10:22:47.307Z,19.32
2022-09-12T10:26:00.783Z,19.00
2022-09-12T10:29:09.790Z,19.12
2022-09-12T10:32:13.076Z,19.02
2022-09-12T10:35:30.598Z,18.87
2022-09-12T10:38:33.177Z,18.96
2022-09-12T10:41:38.258Z,18.90
2022-09-12T10:44:53.111Z,19.05
2022-09-12T10:47:58.925Z,19.71
2022-09-12T10:51:02.591Z,20.39
2022-09-12T10:54:07.948Z,20.79
2022-09-12T10:57:22.298Z,20.75
2022-09-12T11:00:27.992Z,21.02
2022-09-12T11:03:48.217Z,20.93
2022-09-12T11:07:06.526Z,20.10
2022-09-12T11:10:38.145Z,20.67
2022-09-12T11:13:59.147Z,20.92
2022-09-12T11:17:34.153Z,21.23
2022-09-12T11:20:48.434Z,21.71
2022-09-12T11:24:08.720Z,21.01
2022-09-12T11:27:29.554Z,20.81
2022-09-12T11:30:41.515Z,20.26
2022-09-12T11:33:45.765Z,19.44
2022-09-12T11:37:11.010Z,19.08
2022-09-12T11:41:06.556Z,18.71
2022-09-12T11:44:11.386Z,18.56
2022-09-12T11:47:14.086Z,18.02
2022-09-12T11:50:23.440Z,17.81
2022-09-12T11:53:34.134Z,17.36
2022-09-12T11:56:42.425Z,17.12
2022-09-12T12:00:04.243Z,17.07
2022-09-12T12:03:09.156Z,16.82
2022-09-12T12:06:14.024Z,16.71
2022-09-12T12:09:16.342Z,16.58
2022-09-12T12:12:25.039Z,16.53
2022-09-12T12:15:28.412Z,16.64
2022-09-12T12:18:32.687Z,16.89
2022-09-12T12:21:41.262Z,17.11
2022-09-12T12:25:06.496Z,17.17
2022-09-12T12:28:09.144Z,17.43
2022-09-12T12:31:11.457Z,17.81
2022-09-12T12:34:27.470Z,18.30
2022-09-12T12:37:32.317Z,18.58
2022-09-12T12:40:34.458Z,18.79
2022-09-12T12:43:36.724Z,19.24
2022-09-12T12:46:38.982Z,19.20
2022-09-12T12:49:41.257Z,19.12
2022-09-12T12:53:06.652Z,19.08
2022-09-12T12:56:26.780Z,19.37
2022-09-12T12:59:29.450Z,19.64
2022-09-12T13:02:38.267Z,19.72
2022-09-12T13:05:43.985Z,20.18
2022-09-12T13:08:57.151Z,20.09
2022-09-12T13:12:04.409Z,20.38
2022-09-12T13:15:35.572Z,20.43
2022-09-12T13:18:44.723Z,20.62
2022-09-12T13:22:07.605Z,20.47
2022-09-12T13:25:21.577Z,20.53
2022-09-12T13:28:29.052Z,20.48
2022-09-12T13:31:31.367Z,20.75
2022-09-12T13:34:35.743Z,20.61
2022-09-12T13:38:02.920Z,20.96
2022-09-12T13:41:23.873Z,20.60
2022-09-12T13:44:26.894Z,20.16
2022-09-12T13:47:36.162Z,20.08
2022-09-12T13:50:53.689Z,19.64
2022-09-12T13:53:58.196Z,19.47
2022-09-12T13:57:00.374Z,19.58
2022-09-12T14:00:06.754Z,19.42
2022-09-12T14:03:54.742Z,19.45
2022-09-12T14:07:27.981Z,19.35
2022-09-12T14:10:35.362Z,19.28
2022-09-12T14:13:41.643Z,19.30
2022-09-12T14:16:43.912Z,19.11
2022-09-12T14:19:46.643Z,18.97
2022-09-12T14:22:52.908Z,18.90
2022-09-12T14:25:57.056Z,19.20
2022-09-12T14:28:59.535Z,19.54
2022-09-12T14:32:03.798Z,19.52
2022-09-12T14:35:14.037Z,19.52
2022-09-12T14:38:16.156Z,19.49
2022-09-12T14:41:27.976Z,19.53
2022-09-12T14:44:31.195Z,19.63
2022-09-12T14:47:39.326Z,19.79
2022-09-12T14:50:41.745Z,19.85
2022-09-12T14:53:48.975Z,19.82
2022-09-12T14:56:58.587Z,19.90
2022-09-12T15:00:28.010Z,19.80
2022-09-12T15:03:34.790Z,19.84
2022-09-12T15:06:39.019Z,19.75
2022-09-12T15:09:46.437Z,19.83
2022-09-12T15:12:49.558Z,19.70
2022-09-12T15:15:54.361Z,19.68
2022-09-12T15:18:56.825Z,19.70
2022-09-12T15:21:59.141Z,19.73
2022-09-12T15:25:01.293Z,19.70
2022-09-12T15:28:13.926Z,19.58
2022-09-12T15:31:36.314Z,19.58
2022-09-12T15:34:38.485Z,19.62
2022-09-12T15:37:40.709Z,19.54
2022-09-12T15:40:42.887Z,19.55
2022-09-12T15:43:46.053Z,19.49
2022-09-12T15:46:48.328Z,19.43
2022-09-12T15:49:50.633Z,19.37
2022-09-12T15:52:52.856Z,19.44
2022-09-12T15:55:55.067Z,19.25
2022-09-12T15:58:59.834Z,19.11
2022-09-12T16:02:02.687Z,19.09
2022-09-12T16:05:06.183Z,19.06
2022-09-12T16:08:09.548Z,18.98
2022-09-12T16:11:23.035Z,18.86
2022-09-12T16:14:25.330Z,18.82
2022-09-12T16:17:27.525Z,18.82
2022-09-12T16:20:29.739Z,18.78
2022-09-12T16:23:32.236Z,18.81
2022-09-12T16:26:34.458Z,18.73
2022-09-12T16:29:36.776Z,18.68
2022-09-12T16:32:39.119Z,18.66
2022-09-12T16:35:42.157Z,18.60
2022-09-12T16:38:52.339Z,18.51
2022-09-12T16:41:54.523Z,18.37
2022-09-12T16:44:56.904Z,18.38
2022-09-12T16:47:59.110Z,18.37
2022-09-12T16:51:04.111Z,18.23
2022-09-12T16:54:06.294Z,18.10
2022-09-12T16:57:08.459Z,17.95
2022-09-12T17:00:11.279Z,17.69
2022-09-12T17:03:13.808Z,17.65
2022-09-12T17:06:18.137Z,17.43
2022-09-12T17:09:21.444Z,17.18
2022-09-12T17:12:24.113Z,17.03
2022-09-12T17:15:26.313Z,17.12
2022-09-12T17:18:28.492Z,17.06
2022-09-12T17:21:31.279Z,17.00
2022-09-12T17:24:33.612Z,16.82
2022-09-12T17:27:36.072Z,16.75
2022-09-12T17:30:38.291Z,16.28
2022-09-12T17:33:41.133Z,16.16
2022-09-12T17:36:44.696Z,16.08
2022-09-12T17:39:47.000Z,15.91
2022-09-12T17:42:49.237Z,15.64
2022-09-12T17:45:56.661Z,15.48
2022-09-12T17:49:00.999Z,15.46
2022-09-12T17:52:03.317Z,15.42
2022-09-12T17:55:05.835Z,15.46
2022-09-12T17:58:07.997Z,15.57
2022-09-12T18:01:31.525Z,15.67
2022-09-12T18:04:33.799Z,15.65
2022-09-12T18:07:38.929Z,15.57
2022-09-12T18:10:43.096Z,15.56
2022-09-12T18:13:45.260Z,15.62
2022-09-12T18:16:48.061Z,15.55
2022-09-12T18:19:54.013Z,15.45
2022-09-12T18:22:56.391Z,15.38
2022-09-12T18:25:59.900Z,15.23
2022-09-12T18:29:02.164Z,15.14
2022-09-12T18:32:04.483Z,15.19
2022-09-12T18:35:07.302Z,15.20
2022-09-12T18:38:09.600Z,15.24
2022-09-12T18:41:15.874Z,15.20
2022-09-12T18:44:18.260Z,15.00
2022-09-12T18:47:20.856Z,15.00
2022-09-12T18:50:24.641Z,15.14
2022-09-12T18:53:26.842Z,15.22
2022-09-12T18:56:34.495Z,15.11
2022-09-12T18:59:36.716Z,15.18
2022-09-12T19:02:39.491Z,15.15
2022-09-12T19:05:42.788Z,15.27
2022-09-12T19:08:45.683Z,15.26
2022-09-12T19:11:52.604Z,15.16
2022-09-12T19:14:54.830Z,15.10
2022-09-12T19:17:57.020Z,15.01
2022-09-12T19:20:59.380Z,14.81
2022-09-12T19:24:06.952Z,14.63
2022-09-12T19:27:09.362Z,14.40
2022-09-12T19:30:11.949Z,14.05
2022-09-12T19:33:14.172Z,13.95
2022-09-12T19:36:41.286Z,13.87
2022-09-12T19:39:44.352Z,13.54
2022-09-12T19:42:47.050Z,13.29
2022-09-12T19:45:49.707Z,13.15
2022-09-12T19:48:55.454Z,12.97
2022-09-12T19:51:57.685Z,12.88
2022-09-12T19:54:59.861Z,12.88
2022-09-12T19:58:02.766Z,13.04
2022-09-12T20:01:13.696Z,13.22
2022-09-12T20:04:15.890Z,13.24
2022-09-12T20:07:18.108Z,13.20
2022-09-12T20:10:20.419Z,13.24
2022-09-12T20:13:22.603Z,13.21
2022-09-12T20:16:29.187Z,13.13
2022-09-12T20:19:31.991Z,13.38
2022-09-12T20:22:38.045Z,13.59
2022-09-12T20:25:42.295Z,13.42
2022-09-12T20:28:44.479Z,12.95
2022-09-12T20:31:46.763Z,12.82
2022-09-12T20:34:48.990Z,12.43
2022-09-12T20:37:51.193Z,12.77
2022-09-12T20:40:53.524Z,12.80
2022-09-12T20:43:56.570Z,12.94
2022-09-12T20:46:59.485Z,12.96
2022-09-12T20:50:01.740Z,12.68
2022-09-12T20:53:05.273Z,12.43
2022-09-12T20:56:07.691Z,12.62
2022-09-12T20:59:13.183Z,12.30
2022-09-12T21:02:15.986Z,12.06
2022-09-12T21:05:18.350Z,11.70
2022-09-12T21:08:20.520Z,11.62
2022-09-12T21:11:22.676Z,11.56
2022-09-12T21:14:24.917Z,11.66
2022-09-12T21:17:27.143Z,11.68
2022-09-12T21:20:29.298Z,11.66
2022-09-12T21:23:32.152Z,11.59
2022-09-12T21:26:34.484Z,11.50
2022-09-12T21:29:36.653Z,11.33
2022-09-12T21:32:39.022Z,11.20
2022-09-12T21:35:41.221Z,11.07
2022-09-12T21:38:43.828Z,10.95
2022-09-12T21:41:46.030Z,11.06
2022-09-12T21:44:48.227Z,10.98
2022-09-12T21:47:50.571Z,10.88
2022-09-12T21:50:52.839Z,10.92
2022-09-12T21:53:54.996Z,10.87
2022-09-12T21:56:57.146Z,10.90
2022-09-12T21:59:59.504Z,10.82
2022-09-12T22:03:01.812Z,10.74
2022-09-12T22:06:05.580Z,10.68
2022-09-12T22:09:07.767Z,10.79
2022-09-12T22:12:09.942Z,10.79
2022-09-12T22:15:36.472Z,10.83
2022-09-12T22:18:38.229Z,10.74
2022-09-12T22:22:00.395Z,10.74
2022-09-12T22:25:02.568Z,10.72
2022-09-12T22:28:04.741Z,10.59
2022-09-12T22:31:10.509Z,10.57
2022-09-12T22:34:12.703Z,10.67
2022-09-12T22:37:14.911Z,10.66
2022-09-12T22:40:17.155Z,10.67
2022-09-12T22:43:19.339Z,10.61
2022-09-12T22:46:21.557Z,10.38
2022-09-12T22:49:23.892Z,10.06
2022-09-12T22:52:26.509Z,10.13
2022-09-12T22:55:28.749Z,10.23
2022-09-12T22:58:32.144Z,10.18
2022-09-12T23:01:35.523Z,10.16
2022-09-12T23:04:37.866Z,10.03
2022-09-12T23:07:40.060Z,10.06
2022-09-12T23:10:43.992Z,10.02
2022-09-12T23:13:47.435Z,9.94
2022-09-12T23:16:49.648Z,10.05
2022-09-12T23:19:52.418Z,10.15
2022-09-12T23:22:54.879Z,10.20
2022-09-12T23:26:13.600Z,10.25
2022-09-12T23:29:15.810Z,10.17
2022-09-12T23:32:19.668Z,10.10
2022-09-12T23:35:21.844Z,10.12
2022-09-12T23:38:23.991Z,10.13
2022-09-12T23:41:26.171Z,10.00
2022-09-12T23:44:28.352Z,10.06
2022-09-12T23:47:30.484Z,9.84
2022-09-12T23:50:32.625Z,9.87
2022-09-12T23:53:35.870Z,9.77
2022-09-12T23:56:38.026Z,9.82
2022-09-12T23:59:40.193Z,9.83
